FAOR

Olifants River Bridge Landing Strip Airport

Olifants River Bridge, South Africa
METAR FAOR 120900Z 25009KT 190V300 CAVOK 24/10 Q1023 NOSIG
Observed Flight Rules
Dec-12 @ 09:00 UTC (44 minutes ago) Visual Flight Rules
Wind Visibility Clouds
250° at 9 knots 10,000+ meters
  • Clear skies
Temperatures Readings
Current 24°C / 75°F
Dewpoint 10°C / 50°F
Humidity 41%
Altimeter 30.21" Hg
Pressure 1023 hPa
Elevation 1700
METAR FAOR 120900Z 25009KT 190V300 CAVOK 24/10 Q1023 NOSIG
Observed Flight Rules
Dec-12 @ 09:00 UTC
(44 minutes ago)
VFR
Wind Visibility
250° at 9 knots 10,000+ meters
Clouds
  • Clear skies
Temperature Dewpoint
24°C / 75°F 10°C / 50°F
Humidity Altimeter Pressure
41% 30.21" Hg 1023 hPa